DK-0019 weather

Estruplund Flyveplads
Estruplund, Central Jutland, Denmark

Public forecast

Using degrees Celsius for public forecast. Weather courtesy of forecast.io.

Closest aviation weather report (METAR) to Estruplund Flyveplads

Closest report is Aarhus Airport, 17.7 nm (32.8 km) SSE. Retrieved 2020/03/29 15:20 UTC (8 minutes ago):

EKAH 291520Z AUTO 33013KT 310V010 9999NDV NCD 05/M07 Q1033

Closest aviation forecast (TAF) to Estruplund Flyveplads

Closest forecast is Aarhus Airport, 17.7 nm (32.8 km) SSE. Retrieved 2020/03/29 12:00 UTC (3 hours ago):

TAF EKAH 291100Z 2912/3012 01012KT CAVOK TEMPO 2912/2914 03020G32KT BECMG 2917/2920 27008KT